Time;durP1;ratioP1;P1;durP2;ratioP2;P2;SDS_P1;SDS_P2;PMS_P1;PMS_P2;Temp;Humidity;BMP_temperature;BMP_pressure;BME280_temperature;BME280_humidity;BME280_pressure;Samples;Min_cycle;Max_cycle;Signal;HPM_P1;HPM_P2
2024/01/27 07:35:05;;;;;;;0.33;0.33;;;2.60;99.90;4.70;103159.00;;;;6311516;22;20215;-77
2024/01/27 07:37:31;;;;;;;0.40;0.40;;;2.80;99.90;4.70;103153.00;;;;6241547;22;1365423;-78
2024/01/27 07:39:57;;;;;;;0.90;0.90;;;2.70;99.90;4.60;103184.00;;;;6276596;22;20465;-77
2024/01/27 07:42:23;;;;;;;0.40;0.40;;;2.70;99.90;4.80;103188.00;;;;6276649;22;20172;-75
2024/01/27 07:44:49;;;;;;;0.50;0.50;;;2.80;99.90;4.70;103184.00;;;;6274288;22;20151;-75
2024/01/27 07:47:15;;;;;;;1.03;0.97;;;2.80;99.90;4.60;103171.00;;;;6275915;22;20215;-76
2024/01/27 07:49:41;;;;;;;0.80;0.80;;;2.80;99.90;4.20;103154.00;;;;6276473;22;20453;-75
2024/01/27 07:52:11;;;;;;;4.13;1.83;;;2.70;99.90;4.20;103156.00;;;;6251079;22;20244;-75
2024/01/27 07:54:38;;;;;;;1.03;1.03;;;2.70;99.90;4.00;103165.00;;;;6251169;22;20469;-75
2024/01/27 07:57:05;;;;;;;3.17;1.00;;;2.60;99.90;4.40;103165.00;;;;6276684;22;20137;-76
2024/01/27 07:59:31;;;;;;;0.70;0.70;;;2.70;99.90;4.30;103181.00;;;;6250924;22;20156;-75
2024/01/27 08:01:58;;;;;;;0.40;0.40;;;2.70;99.90;4.60;103185.00;;;;6278038;22;20907;-77
2024/01/27 08:04:24;;;;;;;0.57;0.57;;;2.70;99.90;4.70;103186.00;;;;6276144;22;20244;-75
2024/01/27 08:06:51;;;;;;;7.53;5.37;;;2.80;99.90;4.50;103145.00;;;;6274739;22;20165;-75
2024/01/27 08:09:18;;;;;;;0.77;0.77;;;2.80;99.90;4.50;103194.00;;;;6250618;22;20161;-75
2024/01/27 08:11:44;;;;;;;0.93;0.93;;;2.80;99.90;4.80;103108.00;;;;6275234;22;20183;-75
2024/01/27 08:14:10;;;;;;;0.60;0.60;;;2.90;99.90;5.00;103172.00;;;;6277837;22;20149;-77
2024/01/27 08:16:36;;;;;;;0.40;0.40;;;3.00;99.90;4.60;103158.00;;;;6275149;22;20567;-77
2024/01/27 08:19:02;;;;;;;1.23;1.23;;;2.90;99.90;4.60;103180.00;;;;6276513;22;20141;-78
2024/01/27 08:21:28;;;;;;;0.43;0.43;;;2.90;99.90;5.10;103183.00;;;;6250270;22;20152;-82
2024/01/27 08:23:57;;;;;;;0.40;0.40;;;3.00;99.90;5.00;103188.00;;;;6249281;22;20615;-77
2024/01/27 08:26:23;;;;;;;0.87;0.87;;;3.10;99.90;4.70;103189.00;;;;6276657;22;20142;-79
2024/01/27 08:28:49;;;;;;;1.30;1.30;;;3.10;99.90;5.00;103187.00;;;;6275031;22;20180;-77
2024/01/27 08:31:15;;;;;;;3.60;2.17;;;3.20;99.90;4.90;103162.00;;;;6277456;22;20195;-80
2024/01/27 08:33:41;;;;;;;0.30;0.30;;;3.20;99.90;5.10;103184.00;;;;6277290;22;20161;-80
2024/01/27 08:36:07;;;;;;;0.30;0.30;;;3.20;99.90;5.10;103174.00;;;;6275756;22;20202;-81
2024/01/27 08:38:33;;;;;;;0.40;0.40;;;3.20;99.90;5.10;103157.00;;;;6250375;22;20157;-76
2024/01/27 08:40:59;;;;;;;0.80;0.80;;;3.20;99.90;5.10;103182.00;;;;6277655;22;20468;-79
2024/01/27 08:43:25;;;;;;;3.70;1.83;;;3.40;99.90;5.30;103197.00;;;;6275266;22;20215;-79
2024/01/27 08:45:51;;;;;;;0.40;0.40;;;3.40;99.90;5.10;103197.00;;;;6275766;22;20237;-79
2024/01/27 08:48:17;;;;;;;0.40;0.40;;;3.40;99.90;5.10;103121.00;;;;6249897;22;20172;-79
2024/01/27 08:50:43;;;;;;;2.50;2.40;;;3.40;99.90;4.90;103197.00;;;;6250406;22;20154;-79
2024/01/27 08:53:12;;;;;;;1.70;1.17;;;3.40;99.90;4.80;103122.00;;;;6249945;22;20165;-78
2024/01/27 08:55:38;;;;;;;0.40;0.40;;;3.40;99.90;5.30;103186.00;;;;6275801;22;20165;-78
2024/01/27 08:58:04;;;;;;;0.80;0.47;;;3.50;99.90;5.30;103211.00;;;;6275081;22;20483;-79
2024/01/27 09:00:30;;;;;;;1.53;1.37;;;3.60;99.90;6.10;103192.00;;;;6250197;22;20540;-79
2024/01/27 09:02:56;;;;;;;0.40;0.40;;;3.80;99.90;5.70;103199.00;;;;6276508;22;20660;-79
2024/01/27 09:05:22;;;;;;;1.20;1.13;;;3.90;99.90;5.30;103189.00;;;;6275518;22;20171;-78
2024/01/27 09:07:54;;;;;;;0.63;0.63;;;3.80;99.90;6.10;103202.00;;;;6275661;22;20142;-79
2024/01/27 09:10:22;;;;;;;0.30;0.30;;;4.00;99.90;5.80;103207.00;;;;6277433;22;20150;-79
2024/01/27 09:12:51;;;;;;;0.30;0.30;;;4.00;99.90;6.00;103196.00;;;;6276162;22;20150;-79
2024/01/27 09:15:20;;;;;;;2.30;1.23;;;4.10;99.90;5.80;103181.00;;;;6276375;22;20203;-78
2024/01/27 09:17:51;;;;;;;0.30;0.30;;;4.10;99.90;5.80;103197.00;;;;6274803;22;20258;-77
2024/01/27 09:20:20;;;;;;;0.30;0.30;;;4.00;99.90;5.70;103200.00;;;;6250619;22;20165;-78
2024/01/27 09:22:47;;;;;;;0.73;0.73;;;4.00;99.90;5.40;103185.00;;;;6277221;22;20592;-78
2024/01/27 09:25:13;;;;;;;0.30;0.30;;;4.10;99.90;6.20;103217.00;;;;6275350;22;20554;-78
2024/01/27 09:27:42;;;;;;;3.00;2.60;;;4.30;99.90;6.40;103212.00;;;;6275803;22;20185;-78
2024/01/27 09:30:09;;;;;;;2.93;1.67;;;4.60;99.90;6.00;103198.00;;;;6250037;22;20162;-78
2024/01/27 09:32:35;;;;;;;0.50;0.50;;;4.60;99.90;6.00;103184.00;;;;6275728;22;20155;-78
2024/01/27 09:35:01;;;;;;;0.33;0.33;;;4.50;99.90;6.80;103202.00;;;;6276902;22;20160;-79
2024/01/27 09:37:27;;;;;;;0.30;0.30;;;4.80;99.90;7.10;103185.00;;;;6277295;22;20167;-78
2024/01/27 09:39:56;;;;;;;1.10;1.07;;;5.00;99.90;7.50;103222.00;;;;6275309;22;20139;-79
2024/01/27 09:42:22;;;;;;;9.23;2.00;;;5.30;99.90;7.80;103234.00;;;;6275352;22;20175;-79
2024/01/27 09:44:49;;;;;;;3.93;0.50;;;5.60;99.90;7.60;103249.00;;;;6275480;22;20154;-79
2024/01/27 09:47:19;;;;;;;0.87;0.87;;;5.80;99.90;8.60;103257.00;;;;6277113;22;20202;-79
2024/01/27 09:49:48;;;;;;;0.50;0.50;;;6.10;99.90;9.20;103258.00;;;;6275662;22;20145;-80
2024/01/27 09:52:17;;;;;;;0.40;0.40;;;6.60;99.90;10.20;103298.00;;;;6275212;22;20177;-79
2024/01/27 09:54:43;;;;;;;0.40;0.40;;;7.10;99.90;9.10;103239.00;;;;6274704;22;20573;-79
2024/01/27 09:57:11;;;;;;;0.30;0.30;;;7.30;99.90;10.20;103294.00;;;;6276826;22;20147;-79
2024/01/27 09:59:44;;;;;;;20.43;2.90;;;7.60;99.90;9.20;103288.00;;;;6273583;22;20152;-79
2024/01/27 10:02:12;;;;;;;0.27;0.27;;;7.10;99.90;8.60;103299.00;;;;6249721;22;20184;-79
2024/01/27 10:04:48;;;;;;;0.30;0.30;;;6.90;99.90;8.70;103307.00;;;;6274204;22;20169;-78
2024/01/27 10:07:14;;;;;;;0.87;0.87;;;6.90;99.90;9.70;103298.00;;;;6248247;22;20611;-78
2024/01/27 10:09:41;;;;;;;0.20;0.20;;;7.20;99.90;11.40;103324.00;;;;6248647;22;20198;-76
2024/01/27 10:12:09;;;;;;;0.30;0.30;;;8.20;99.90;10.50;103282.00;;;;6276031;22;20167;-77
2024/01/27 10:14:40;;;;;;;1.03;0.70;;;8.30;99.90;10.80;103316.00;;;;6249257;22;20163;-77
2024/01/27 10:17:10;;;;;;;0.20;0.20;;;8.20;99.90;10.30;103261.00;;;;6249213;22;20161;-77
2024/01/27 10:19:36;;;;;;;0.20;0.20;;;8.20;99.90;9.70;103307.00;;;;6274563;22;20150;-79
2024/01/27 10:33:31;;;;;;;3.40;0.40;;;6.00;99.90;7.40;103239.00;;;;5069672;28;20563;-78
2024/01/27 10:36:00;;;;;;;0.40;0.40;;;6.10;99.90;8.10;103226.00;;;;5050052;28;20274;-80
2024/01/27 10:38:39;;;;;;;1.93;0.83;;;6.20;99.90;8.40;103278.00;;;;5048247;28;20201;-78
2024/01/27 10:41:11;;;;;;;0.73;0.73;;;6.40;99.90;8.20;103298.00;;;;5048217;28;20716;-78
2024/01/27 10:43:38;;;;;;;5.73;0.87;;;6.40;99.90;8.40;103242.00;;;;5065350;28;20208;-78
2024/01/27 10:46:08;;;;;;;0.30;0.30;;;6.40;99.90;8.90;103306.00;;;;5047675;28;20536;-76
2024/01/27 10:48:43;;;;;;;0.47;0.47;;;6.60;99.90;8.50;103293.00;;;;5048088;28;20188;-73
2024/01/27 10:51:10;;;;;;;0.20;0.20;;;6.40;99.90;8.90;103279.00;;;;5036695;28;20224;-75
2024/01/27 10:53:39;;;;;;;0.20;0.20;;;6.50;99.90;9.00;103295.00;;;;5032589;28;20278;-79
2024/01/27 10:56:09;;;;;;;0.20;0.20;;;6.60;99.90;9.30;103280.00;;;;5073826;28;20178;-78
2024/01/27 10:58:41;;;;;;;1.07;1.07;;;6.80;99.90;8.90;103303.00;;;;5049780;28;20269;-78
2024/01/27 11:01:11;;;;;;;0.50;0.50;;;6.90;99.90;9.40;103306.00;;;;5056596;28;20195;-83
2024/01/27 11:03:39;;;;;;;0.40;0.40;;;7.00;99.90;10.00;103318.00;;;;5048481;28;20187;-83
2024/01/27 11:06:11;;;;;;;0.20;0.20;;;7.40;99.90;8.90;103274.00;;;;5049160;28;20187;-83
2024/01/27 11:08:39;;;;;;;0.60;0.60;;;7.20;99.90;9.30;103304.00;;;;5044680;28;20537;-84
2024/01/27 11:11:05;;;;;;;3.30;0.93;;;7.30;99.90;9.90;103309.00;;;;5053517;28;20180;-84
2024/01/27 11:13:33;;;;;;;0.53;0.53;;;7.70;99.90;10.40;103286.00;;;;5046667;28;20194;-85
2024/01/27 11:15:59;;;;;;;0.47;0.47;;;7.90;99.90;9.70;103316.00;;;;5050102;28;20188;-78
2024/01/27 11:18:26;;;;;;;0.70;0.70;;;8.00;99.90;8.90;103286.00;;;;5049449;28;20277;-78
2024/01/27 11:20:58;;;;;;;0.20;0.20;;;7.60;99.90;9.70;103303.00;;;;5047716;28;20188;-77
2024/01/27 11:23:35;;;;;;;0.20;0.20;;;7.60;99.90;9.50;103314.00;;;;5047852;28;20188;-78
2024/01/27 11:26:09;;;;;;;0.20;0.20;;;7.60;99.90;9.70;103236.00;;;;5045505;28;20185;-78
2024/01/27 11:28:37;;;;;;;0.97;0.83;;;7.60;99.90;10.30;103323.00;;;;5031343;28;20549;-78
2024/01/27 11:31:07;;;;;;;0.70;0.70;;;8.00;99.90;10.30;103311.00;;;;5028164;28;20678;-78
2024/01/27 11:33:34;;;;;;;4.90;2.30;;;8.20;99.90;11.80;103320.00;;;;5045497;28;20183;-78
2024/01/27 11:36:04;;;;;;;0.23;0.23;;;8.70;99.90;13.20;103283.00;;;;5031256;28;20204;-78
2024/01/27 11:38:33;;;;;;;0.73;0.73;;;9.70;99.90;12.50;103319.00;;;;5036423;28;20182;-78
2024/01/27 11:41:03;;;;;;;0.27;0.27;;;10.20;99.90;11.30;103309.00;;;;5047940;28;20186;-77
2024/01/27 11:43:29;;;;;;;0.37;0.37;;;9.30;99.90;11.80;103311.00;;;;5043143;28;20194;-78
2024/01/27 11:45:58;;;;;;;6.97;0.97;;;9.30;99.90;11.90;103326.00;;;;5034275;28;20183;-78
2024/01/27 11:48:24;;;;;;;0.23;0.23;;;9.40;99.90;12.10;103322.00;;;;5033673;28;20191;-78
2024/01/27 11:51:11;;;;;;;0.10;0.10;;;9.50;99.90;11.80;103315.00;;;;5051030;28;20198;-78
2024/01/27 11:53:38;;;;;;;0.10;0.10;;;9.30;99.90;12.80;103315.00;;;;5025015;28;20191;-79
2024/01/27 11:56:04;;;;;;;1.80;1.23;;;9.50;99.90;12.50;103318.00;;;;5034987;28;20191;-78
2024/01/27 11:58:36;;;;;;;0.37;0.20;;;9.70;99.90;12.80;103322.00;;;;5034341;28;20218;-78
2024/01/27 12:01:03;;;;;;;0.20;0.20;;;9.80;99.90;12.10;103313.00;;;;5034890;28;20193;-78
2024/01/27 12:03:29;;;;;;;0.30;0.30;;;9.50;99.90;10.90;103316.00;;;;5034135;28;20216;-78
2024/01/27 12:05:56;;;;;;;2.37;2.27;;;9.20;99.90;11.50;103294.00;;;;5035147;28;20656;-78
2024/01/27 12:08:21;;;;;;;0.10;0.10;;;8.80;99.90;11.20;103298.00;;;;5031985;28;20197;-78
2024/01/27 12:10:51;;;;;;;0.20;0.20;;;8.80;99.90;12.30;103243.00;;;;5034641;28;20268;-78
2024/01/27 12:13:17;;;;;;;0.20;0.20;;;9.10;99.90;10.90;103281.00;;;;5047359;28;20315;-70
2024/01/27 12:15:44;;;;;;;3.83;3.70;;;8.90;99.90;12.60;103298.00;;;;5034863;28;20697;-72
2024/01/27 12:18:10;;;;;;;1.53;1.50;;;9.30;99.90;12.90;103306.00;;;;5032396;28;20281;-75
2024/01/27 12:20:36;;;;;;;0.20;0.20;;;9.90;99.90;13.00;103243.00;;;;5033703;28;20194;-74
2024/01/27 12:23:11;;;;;;;0.40;0.40;;;10.00;99.90;12.60;103301.00;;;;5019065;28;20416;-74
2024/01/27 12:25:40;;;;;;;0.70;0.70;;;10.00;99.90;12.00;103298.00;;;;5025452;28;20180;-74
2024/01/27 12:28:53;;;;;;;0.20;0.20;;;9.80;99.90;12.40;103292.00;;;;5035071;28;20246;-73
2024/01/27 12:31:45;;;;;;;0.33;0.33;;;9.70;99.90;11.10;103213.00;;;;5026051;28;20344;-75
2024/01/27 12:34:29;;;;;;;4.10;3.80;;;9.20;99.90;12.10;103269.00;;;;5031445;28;20186;-72
2024/01/27 12:37:15;;;;;;;0.30;0.30;;;9.30;99.90;11.50;103261.00;;;;5030081;28;20649;-73
2024/01/27 12:39:45;;;;;;;3.10;2.67;;;9.30;99.90;11.60;103263.00;;;;5033908;28;20238;-73
2024/01/27 12:42:40;;;;;;;0.23;0.23;;;9.40;99.90;13.10;103276.00;;;;5034666;28;20211;-73
2024/01/27 12:45:07;;;;;;;0.23;0.23;;;9.90;99.90;13.00;103267.00;;;;5023529;28;20694;-72
2024/01/27 12:47:33;;;;;;;0.50;0.50;;;10.10;99.90;12.20;103267.00;;;;5032291;28;20191;-72
2024/01/27 12:49:59;;;;;;;0.93;0.93;;;9.90;99.90;13.40;103252.00;;;;5034343;28;20233;-72
2024/01/27 12:52:25;;;;;;;0.10;0.10;;;10.30;99.90;12.70;103262.00;;;;5030175;28;20245;-72
2024/01/27 12:54:51;;;;;;;0.50;0.50;;;10.20;99.90;11.60;103208.00;;;;5031582;28;20597;-72
2024/01/27 12:57:18;;;;;;;0.20;0.20;;;9.80;99.90;11.60;103228.00;;;;5033408;28;20187;-72
2024/01/27 12:59:44;;;;;;;0.20;0.20;;;9.60;99.90;12.50;103244.00;;;;5033069;28;20191;-72
2024/01/27 13:02:10;;;;;;;0.40;0.40;;;9.80;99.90;12.00;103247.00;;;;5032508;28;20256;-72
2024/01/27 13:04:38;;;;;;;0.27;0.27;;;9.70;99.90;11.90;103184.00;;;;5039851;28;20550;-72
2024/01/27 13:07:07;;;;;;;2.33;1.13;;;9.70;99.90;11.50;103224.00;;;;5032592;28;20186;-72
2024/01/27 13:09:42;;;;;;;0.17;0.17;;;9.50;99.90;11.90;103179.00;;;;5062048;28;20183;-72
2024/01/27 13:12:12;;;;;;;0.40;0.40;;;9.40;99.90;12.50;103176.00;;;;5019278;28;20199;-72
2024/01/27 13:14:38;;;;;;;0.30;0.30;;;9.60;99.90;12.50;103246.00;;;;5027338;28;20663;-72
2024/01/27 13:17:14;;;;;;;0.43;0.43;;;10.00;99.90;13.50;103249.00;;;;5032333;28;20221;-72
2024/01/27 13:19:45;;;;;;;0.83;0.83;;;10.30;99.90;13.10;103262.00;;;;5033128;28;20192;-72
2024/01/27 13:22:12;;;;;;;0.73;0.50;;;10.50;99.90;12.70;103293.00;;;;5032634;28;20207;-72
2024/01/27 13:24:38;;;;;;;4.03;3.73;;;10.40;99.90;11.80;103283.00;;;;5029203;28;20202;-72
2024/01/27 13:27:05;;;;;;;0.20;0.20;;;9.80;99.90;12.20;103275.00;;;;5031369;28;20182;-73
2024/01/27 13:29:32;;;;;;;1.90;0.47;;;9.80;99.90;12.40;103269.00;;;;5015614;28;20185;-72
2024/01/27 13:32:01;;;;;;;1.13;0.77;;;9.90;99.90;12.10;103278.00;;;;5031669;28;20211;-74
2024/01/27 13:34:30;;;;;;;0.50;0.50;;;9.80;99.90;11.90;103265.00;;;;5021540;28;20179;-74
2024/01/27 13:36:56;;;;;;;0.40;0.40;;;9.60;99.90;11.20;103265.00;;;;5032563;28;20199;-74
2024/01/27 13:39:23;;;;;;;0.10;0.10;;;9.50;99.90;12.60;103259.00;;;;5031704;28;20182;-74
2024/01/27 13:41:49;;;;;;;0.30;0.30;;;9.50;99.90;12.50;103262.00;;;;5016003;28;20215;-74
2024/01/27 13:44:24;;;;;;;0.30;0.30;;;9.80;99.90;13.60;103284.00;;;;5032576;28;20533;-76
2024/01/27 13:46:50;;;;;;;0.83;0.83;;;10.20;99.90;12.70;103313.00;;;;5033462;28;20185;-72
2024/01/27 13:49:24;;;;;;;0.10;0.10;;;10.20;99.90;13.70;103324.00;;;;5033676;28;20185;-72
2024/01/27 13:51:59;;;;;;;0.47;0.20;;;10.30;99.90;13.50;103344.00;;;;5032931;28;20561;-73
2024/01/27 13:54:34;;;;;;;1.17;0.73;;;10.60;99.90;13.10;103356.00;;;;5015398;28;20190;-73
2024/01/27 13:57:02;;;;;;;0.10;0.10;;;10.40;99.90;13.40;103354.00;;;;5021709;28;20219;-73
2024/01/27 13:59:28;;;;;;;0.10;0.10;;;10.20;99.90;14.20;103340.00;;;;5032219;28;20275;-73
2024/01/27 14:02:25;;;;;;;0.13;0.13;;;10.60;99.90;14.20;103330.00;;;;5014003;28;20215;-73
2024/01/27 14:04:54;;;;;;;0.10;0.10;;;10.70;99.90;14.60;103310.00;;;;5014616;28;20195;-73
2024/01/27 14:07:20;;;;;;;0.10;0.10;;;11.10;99.90;13.00;103347.00;;;;5030697;28;20191;-73
2024/01/27 14:10:02;;;;;;;0.10;0.10;;;10.60;99.90;12.60;103332.00;;;;5031603;28;20197;-73
2024/01/27 14:12:29;;;;;;;0.10;0.10;;;10.00;99.90;12.90;103348.00;;;;5029168;28;20198;-73
2024/01/27 14:15:17;;;;;;;0.10;0.10;;;9.90;99.90;13.80;103335.00;;;;5031765;28;20189;-73
2024/01/27 14:17:44;;;;;;;0.20;0.20;;;10.10;99.90;13.10;103347.00;;;;5030441;28;20179;-73
2024/01/27 14:20:19;;;;;;;1.53;0.83;;;10.20;99.90;13.80;103322.00;;;;5013265;28;20248;-73
2024/01/27 14:22:45;;;;;;;0.17;0.17;;;10.40;99.90;12.40;103339.00;;;;5031646;28;20661;-72
2024/01/27 14:25:18;;;;;;;4.47;1.63;;;10.10;99.90;12.90;103346.00;;;;5015030;28;20192;-73
2024/01/27 14:27:53;;;;;;;0.10;0.10;;;9.90;99.90;12.50;103315.00;;;;5019055;28;20246;-73
2024/01/27 14:30:27;;;;;;;0.33;0.33;;;9.80;99.90;12.10;103354.00;;;;5030771;28;20193;-72
2024/01/27 14:32:59;;;;;;;0.10;0.10;;;9.60;99.90;11.90;103358.00;;;;5030558;28;20210;-72
2024/01/27 14:35:28;;;;;;;0.10;0.10;;;9.40;99.90;12.60;103347.00;;;;5031337;28;20188;-73
2024/01/27 14:38:01;;;;;;;0.13;0.13;;;9.50;99.90;11.80;103350.00;;;;5014528;28;20275;-73
2024/01/27 14:40:32;;;;;;;0.10;0.10;;;9.40;99.90;12.40;103337.00;;;;5031089;28;20232;-73
2024/01/27 14:43:05;;;;;;;0.20;0.20;;;9.50;99.90;12.40;103352.00;;;;5013258;28;20306;-73
2024/01/27 14:45:31;;;;;;;0.10;0.10;;;9.50;99.90;12.10;103347.00;;;;5039153;28;20182;-73
2024/01/27 14:47:57;;;;;;;1.50;1.43;;;9.40;99.90;11.80;103339.00;;;;5033062;28;20233;-73
2024/01/27 14:50:23;;;;;;;0.37;0.37;;;9.20;99.90;11.70;103344.00;;;;5031669;28;20277;-73
2024/01/27 14:52:49;;;;;;;1.00;0.30;;;9.20;99.90;11.70;103330.00;;;;5011592;28;20206;-73
2024/01/27 14:55:18;;;;;;;1.50;1.40;;;9.10;99.90;12.70;103316.00;;;;5030520;28;20213;-73
2024/01/27 14:57:44;;;;;;;0.43;0.27;;;9.40;99.90;12.20;103255.00;;;;5027960;28;20187;-73
2024/01/27 15:00:14;;;;;;;0.30;0.30;;;9.40;99.90;12.40;103298.00;;;;5056621;28;20239;-73
2024/01/27 15:02:49;;;;;;;0.10;0.10;;;9.30;99.90;12.90;103291.00;;;;5037210;28;20208;-74
2024/01/27 15:05:15;;;;;;;0.10;0.10;;;9.60;99.90;12.80;103309.00;;;;5029957;28;20707;-73
2024/01/27 15:07:41;;;;;;;0.30;0.30;;;9.60;99.90;11.80;103333.00;;;;5030742;28;20236;-74
2024/01/27 15:10:07;;;;;;;0.10;0.10;;;9.20;99.90;12.10;103318.00;;;;5030962;28;20202;-73
2024/01/27 15:12:33;;;;;;;0.40;0.40;;;9.20;99.90;12.70;103315.00;;;;5031154;28;20192;-73
2024/01/27 15:14:59;;;;;;;0.10;0.10;;;9.40;99.90;11.40;103322.00;;;;5027828;28;20201;-73
2024/01/27 15:17:25;;;;;;;0.10;0.10;;;9.10;99.90;11.70;103297.00;;;;5017546;28;20215;-74
2024/01/27 15:19:51;;;;;;;0.10;0.10;;;8.90;99.90;12.40;103305.00;;;;5035813;28;20693;-73
2024/01/27 15:22:18;;;;;;;0.20;0.20;;;9.00;99.90;13.00;103315.00;;;;5035335;28;20301;-73
2024/01/27 15:24:45;;;;;;;6.90;1.73;;;9.30;99.90;12.30;103314.00;;;;5035681;28;20611;-73
2024/01/27 15:27:11;;;;;;;0.20;0.20;;;9.30;99.90;11.60;103332.00;;;;5018385;28;20309;-72
2024/01/27 15:29:37;;;;;;;0.10;0.10;;;9.10;99.90;11.40;103326.00;;;;5035529;28;20240;-73
2024/01/27 15:32:03;;;;;;;0.20;0.20;;;8.80;99.90;12.00;103253.00;;;;5033507;28;20206;-73
2024/01/27 15:34:29;;;;;;;0.10;0.10;;;8.80;99.90;11.50;103330.00;;;;5034453;28;20201;-73
2024/01/27 15:36:55;;;;;;;0.33;0.33;;;8.90;99.90;11.60;103318.00;;;;5020883;28;20192;-75
2024/01/27 15:39:21;;;;;;;0.50;0.50;;;8.80;99.90;11.10;103298.00;;;;5025359;28;20200;-75
2024/01/27 15:41:47;;;;;;;0.20;0.20;;;8.60;99.90;11.60;103293.00;;;;5034118;28;20201;-72
2024/01/27 15:44:14;;;;;;;1.13;1.07;;;8.60;99.90;11.70;103297.00;;;;5034338;28;20215;-76
2024/01/27 15:46:41;;;;;;;0.10;0.10;;;8.60;99.90;12.10;103295.00;;;;5025758;28;20674;-72
2024/01/27 15:49:07;;;;;;;0.20;0.20;;;8.80;99.90;12.20;103302.00;;;;5035744;28;20268;-73
2024/01/27 15:51:37;;;;;;;0.20;0.20;;;8.80;99.90;12.70;103260.00;;;;5036497;28;20256;-72
2024/01/27 15:54:06;;;;;;;0.20;0.20;;;9.00;99.90;12.40;103312.00;;;;5033607;28;20189;-72
2024/01/27 15:56:32;;;;;;;0.20;0.20;;;9.10;99.90;12.40;103304.00;;;;5029931;28;20279;-72
2024/01/27 15:58:58;;;;;;;0.20;0.20;;;9.10;99.90;12.80;103304.00;;;;5017342;28;20287;-74
2024/01/27 16:01:27;;;;;;;0.20;0.20;;;9.20;99.90;12.00;103261.00;;;;5028505;28;20204;-74
2024/01/27 16:03:53;;;;;;;0.20;0.20;;;8.90;99.90;11.70;103305.00;;;;5035069;28;20693;-73
2024/01/27 16:06:22;;;;;;;0.20;0.20;;;8.70;99.90;11.70;103290.00;;;;5034425;28;20191;-73
2024/01/27 16:08:56;;;;;;;0.20;0.20;;;8.50;99.90;11.70;103294.00;;;;5042882;28;20615;-73
2024/01/27 16:11:25;;;;;;;0.20;0.20;;;8.60;99.90;11.70;103284.00;;;;5035872;28;20200;-73
2024/01/27 16:13:54;;;;;;;0.20;0.20;;;8.60;99.90;12.10;103293.00;;;;5027352;28;20199;-73
2024/01/27 16:16:23;;;;;;;0.40;0.40;;;8.60;99.90;12.60;103240.00;;;;5024563;28;20190;-73
2024/01/27 16:18:49;;;;;;;0.20;0.20;;;8.80;99.90;12.00;103308.00;;;;5034125;28;20200;-73
2024/01/27 16:21:26;;;;;;;0.30;0.30;;;8.70;99.90;12.00;103295.00;;;;5033700;28;20581;-73
2024/01/27 16:23:56;;;;;;;0.20;0.20;;;8.60;99.90;12.10;103290.00;;;;5037390;28;20653;-74
2024/01/27 16:26:27;;;;;;;0.20;0.20;;;8.60;99.90;12.10;103291.00;;;;5033617;28;20197;-73
2024/01/27 16:28:59;;;;;;;0.20;0.20;;;8.70;99.90;12.20;103285.00;;;;5015594;28;20277;-73
2024/01/27 16:31:33;;;;;;;0.20;0.20;;;8.70;99.90;12.00;103240.00;;;;5063302;28;20211;-73
2024/01/27 16:34:02;;;;;;;0.20;0.20;;;8.60;99.90;11.90;103294.00;;;;5034818;28;20207;-73
2024/01/27 16:36:31;;;;;;;0.40;0.40;;;8.60;99.90;11.80;103292.00;;;;5033495;28;20851;-73
2024/01/27 16:39:01;;;;;;;0.23;0.23;;;8.60;99.90;11.80;103276.00;;;;5050076;28;20188;-73
2024/01/27 16:41:30;;;;;;;0.20;0.20;;;8.50;99.90;12.40;103287.00;;;;5023290;28;20659;-74
2024/01/27 16:43:58;;;;;;;0.20;0.20;;;8.60;99.90;12.50;103302.00;;;;5033044;28;20193;-74
2024/01/27 16:46:33;;;;;;;0.20;0.20;;;8.80;99.90;12.80;103298.00;;;;5033099;28;20562;-74
2024/01/27 16:49:04;;;;;;;0.20;0.20;;;9.00;99.90;12.90;103282.00;;;;5035246;28;20189;-74
2024/01/27 16:51:30;;;;;;;0.20;0.20;;;9.00;99.90;13.10;103296.00;;;;5032755;28;20193;-74
2024/01/27 16:53:56;;;;;;;0.20;0.20;;;9.20;99.90;12.90;103308.00;;;;5034238;28;20189;-74
2024/01/27 16:56:30;;;;;;;0.20;0.20;;;9.10;99.90;12.40;103317.00;;;;5032989;28;20712;-74
2024/01/27 16:59:03;;;;;;;0.20;0.20;;;8.90;99.90;12.30;103347.00;;;;5028164;28;20614;-74
2024/01/27 17:01:30;;;;;;;5.70;5.40;;;8.80;99.90;12.50;103330.00;;;;5032905;28;20653;-74
2024/01/27 17:04:07;;;;;;;0.20;0.20;;;8.70;99.90;12.40;103327.00;;;;5032781;28;20199;-74
2024/01/27 17:06:36;;;;;;;0.20;0.20;;;8.70;99.90;12.40;103270.00;;;;5032767;28;20227;-74
2024/01/27 17:09:16;;;;;;;0.20;0.20;;;8.70;99.90;12.10;103303.00;;;;5017355;28;20659;-74
2024/01/27 17:11:48;;;;;;;0.20;0.20;;;8.60;99.90;12.00;103315.00;;;;5017587;28;20182;-74
2024/01/27 17:14:26;;;;;;;0.20;0.20;;;8.50;99.90;12.40;103307.00;;;;5037957;28;20551;-74
2024/01/27 17:17:02;;;;;;;0.20;0.20;;;8.70;99.90;12.90;103298.00;;;;5031727;28;20223;-74
2024/01/27 17:19:54;;;;;;;0.63;0.63;;;8.90;99.90;12.60;103315.00;;;;5025240;28;20656;-74
2024/01/27 17:22:40;;;;;;;0.20;0.20;;;8.90;99.90;12.30;103290.00;;;;5015312;28;20222;-74
2024/01/27 17:25:08;;;;;;;0.23;0.23;;;8.70;99.90;12.00;103245.00;;;;5013356;28;20188;-73
2024/01/27 17:27:40;;;;;;;0.20;0.20;;;8.50;99.90;12.30;103322.00;;;;5022964;28;20188;-72
2024/01/27 17:30:16;;;;;;;0.20;0.20;;;8.50;99.90;12.30;103324.00;;;;5032282;28;20182;-73
2024/01/27 17:33:03;;;;;;;0.70;0.70;;;8.50;99.90;12.60;103297.00;;;;5037926;28;20229;-73
2024/01/27 17:35:49;;;;;;;0.20;0.20;;;8.60;99.90;12.20;103307.00;;;;5039211;28;20703;-73
2024/01/27 17:38:18;;;;;;;0.20;0.20;;;8.60;99.90;12.00;103264.00;;;;5023015;28;20191;-73
2024/01/27 17:41:04;;;;;;;0.30;0.30;;;8.40;99.90;11.90;103303.00;;;;5047857;28;20185;-73
2024/01/27 17:43:50;;;;;;;0.20;0.20;;;8.20;99.90;12.10;103306.00;;;;5061838;28;20376;-73
2024/01/27 17:46:27;;;;;;;0.40;0.40;;;8.30;99.90;12.30;103297.00;;;;5026001;28;20600;-73
2024/01/27 17:48:53;;;;;;;0.30;0.30;;;8.40;99.90;11.80;103298.00;;;;5031375;28;20212;-74
2024/01/27 17:51:22;;;;;;;0.40;0.40;;;8.20;99.90;11.60;103228.00;;;;5032154;28;20186;-73
2024/01/27 17:53:51;;;;;;;0.40;0.40;;;8.00;99.90;11.60;103293.00;;;;5030964;28;20245;-74
2024/01/27 17:56:24;;;;;;;0.20;0.20;;;7.90;99.90;11.10;103260.00;;;;5023715;28;20183;-73
2024/01/27 17:58:53;;;;;;;0.20;0.20;;;7.80;99.90;10.80;103262.00;;;;5056026;28;20676;-74
2024/01/27 18:01:25;;;;;;;0.30;0.30;;;7.60;99.90;10.40;103251.00;;;;5031651;28;20191;-73
2024/01/27 18:03:51;;;;;;;0.20;0.20;;;7.40;99.90;10.00;103217.00;;;;5038318;28;20245;-73
2024/01/27 18:06:19;;;;;;;0.20;0.20;;;7.20;99.90;10.00;103210.00;;;;5015193;28;20274;-72
2024/01/27 18:08:45;;;;;;;0.20;0.20;;;7.00;99.90;10.10;103194.00;;;;5032520;28;20175;-73
2024/01/27 18:11:11;;;;;;;0.23;0.23;;;7.10;99.90;9.80;103203.00;;;;5032058;28;20198;-72
2024/01/27 18:13:46;;;;;;;0.20;0.20;;;6.90;99.90;9.80;103176.00;;;;5032362;28;20548;-73
2024/01/27 18:16:21;;;;;;;0.37;0.37;;;6.90;99.90;9.60;103186.00;;;;5032244;28;20703;-72
2024/01/27 18:18:50;;;;;;;0.23;0.23;;;6.90;99.90;9.90;103175.00;;;;5029971;28;20199;-73
2024/01/27 18:21:19;;;;;;;1.27;1.23;;;6.90;99.90;10.20;103106.00;;;;5021831;28;20183;-73
2024/01/27 18:23:45;;;;;;;0.40;0.40;;;6.90;99.90;9.80;103172.00;;;;5031524;28;20648;-72
2024/01/27 18:26:14;;;;;;;0.30;0.30;;;6.90;99.90;9.60;103186.00;;;;5031560;28;20193;-73
2024/01/27 18:28:41;;;;;;;0.50;0.50;;;6.80;99.90;9.40;103165.00;;;;5015430;28;20278;-72
2024/01/27 18:31:10;;;;;;;0.30;0.30;;;6.70;99.90;9.90;103162.00;;;;5032294;28;20278;-73
2024/01/27 18:33:36;;;;;;;0.30;0.30;;;6.70;99.90;9.40;103181.00;;;;5031563;28;20645;-72
2024/01/27 18:36:02;;;;;;;1.47;1.47;;;6.70;99.90;9.30;103171.00;;;;5031539;28;20199;-72
2024/01/27 18:38:39;;;;;;;0.30;0.30;;;6.60;99.90;9.60;103170.00;;;;5032317;28;20183;-73
2024/01/27 18:41:08;;;;;;;0.20;0.20;;;6.70;99.90;9.70;103136.00;;;;5031428;28;20184;-73
2024/01/27 18:43:40;;;;;;;0.30;0.30;;;6.70;99.90;9.30;103165.00;;;;5031888;28;20208;-73
2024/01/27 18:46:12;;;;;;;0.30;0.30;;;6.60;99.90;9.40;103142.00;;;;5032201;28;20638;-72
2024/01/27 18:48:38;;;;;;;0.20;0.20;;;6.60;99.90;9.50;103166.00;;;;5031917;28;20223;-73
2024/01/27 18:51:08;;;;;;;1.47;1.37;;;6.50;99.90;9.30;103158.00;;;;5031629;28;20208;-73
2024/01/27 18:53:34;;;;;;;0.40;0.40;;;6.50;99.90;9.40;103160.00;;;;5032589;28;20190;-73